Time;durP1;ratioP1;P1;durP2;ratioP2;P2;SDS_P1;SDS_P2;PMS_P1;PMS_P2;Temp;Humidity;BMP_temperature;BMP_pressure;BME280_temperature;BME280_humidity;BME280_pressure;Samples;Min_cycle;Max_cycle;Signal;HPM_P1;HPM_P2
2023/04/18 00:00:17;;;;;;;4.30;3.90;;;;;;;;;;5015038;28;20219;-80
2023/04/18 00:02:44;;;;;;;4.82;4.40;;;;;;;;;;5014949;28;20227;-81
2023/04/18 00:05:16;;;;;;;4.07;3.78;;;;;;;;;;5016230;28;20286;-81
2023/04/18 00:07:44;;;;;;;3.78;3.47;;;;;;;;;;5014823;28;20633;-81
2023/04/18 00:10:12;;;;;;;3.53;3.22;;;;;;;;;;5015152;28;20659;-80
2023/04/18 00:12:40;;;;;;;3.78;3.47;;;;;;;;;;5015026;28;20669;-81
2023/04/18 00:15:10;;;;;;;3.25;3.05;;;;;;;;;;5015079;28;20207;-81
2023/04/18 00:17:38;;;;;;;5.10;4.60;;;;;;;;;;5016250;28;20289;-82
2023/04/18 00:20:09;;;;;;;4.45;4.05;;;;;;;;;;5016139;28;20302;-81
2023/04/18 00:22:41;;;;;;;4.75;4.35;;;;;;;;;;5016298;28;20226;-81
2023/04/18 00:25:09;;;;;;;3.50;3.20;;;;;;;;;;5017155;28;20203;-81
2023/04/18 00:27:37;;;;;;;4.40;4.00;;;;;;;;;;5016059;28;20215;-82
2023/04/18 00:30:06;;;;;;;5.05;4.60;;;;;;;;;;5015697;28;20581;-81
2023/04/18 00:32:33;;;;;;;4.47;4.07;;;;;;;;;;5015268;28;20199;-82
2023/04/18 00:35:01;;;;;;;4.15;3.75;;;;;;;;;;5015108;28;20290;-81
2023/04/18 00:37:30;;;;;;;4.32;3.35;;;;;;;;;;5015153;28;20207;-81
2023/04/18 00:39:58;;;;;;;4.35;3.95;;;;;;;;;;5014783;28;20213;-81
2023/04/18 00:42:27;;;;;;;4.07;3.78;;;;;;;;;;5014931;28;20229;-81
2023/04/18 00:44:55;;;;;;;4.38;3.97;;;;;;;;;;5014695;28;20611;-81
2023/04/18 00:47:22;;;;;;;3.90;3.50;;;;;;;;;;5014876;28;20210;-81
2023/04/18 00:49:50;;;;;;;4.18;3.78;;;;;;;;;;5014176;28;20202;-81
2023/04/18 00:52:18;;;;;;;4.25;3.25;;;;;;;;;;5014704;28;20207;-81
2023/04/18 00:54:46;;;;;;;4.30;3.90;;;;;;;;;;5014295;28;20231;-81
2023/04/18 00:57:14;;;;;;;4.75;4.30;;;;;;;;;;5015074;28;20294;-81
2023/04/18 00:59:43;;;;;;;4.07;3.78;;;;;;;;;;5015206;28;20196;-81
2023/04/18 01:02:11;;;;;;;3.33;3.13;;;;;;;;;;5014758;28;20615;-81
2023/04/18 01:04:38;;;;;;;3.33;3.13;;;;;;;;;;5014709;28;20250;-81
2023/04/18 01:07:07;;;;;;;3.65;3.35;;;;;;;;;;5014259;28;20614;-80
2023/04/18 01:09:34;;;;;;;4.22;3.83;;;;;;;;;;5014530;28;20206;-81
2023/04/18 01:12:03;;;;;;;4.70;4.30;;;;;;;;;;5014422;28;20252;-81
2023/04/18 01:14:31;;;;;;;4.20;3.80;;;;;;;;;;5014056;28;20777;-81
2023/04/18 01:17:00;;;;;;;4.40;3.97;;;;;;;;;;5013697;28;20207;-81
2023/04/18 01:19:27;;;;;;;4.55;4.15;;;;;;;;;;5014146;28;20207;-80
2023/04/18 01:21:55;;;;;;;3.70;3.40;;;;;;;;;;5014850;28;20287;-81
2023/04/18 01:24:25;;;;;;;4.20;3.85;;;;;;;;;;5014725;28;20222;-81
2023/04/18 01:26:53;;;;;;;3.75;3.45;;;;;;;;;;5014879;28;20294;-81
2023/04/18 01:29:20;;;;;;;4.30;4.00;;;;;;;;;;5013847;28;20294;-81
2023/04/18 01:31:47;;;;;;;3.83;3.53;;;;;;;;;;5014083;28;20301;-81
2023/04/18 01:34:16;;;;;;;3.78;3.28;;;;;;;;;;5014066;28;20745;-82
2023/04/18 01:36:44;;;;;;;5.28;4.80;;;;;;;;;;5014485;28;20206;-80
2023/04/18 01:39:12;;;;;;;5.68;5.18;;;;;;;;;;5014057;28;20203;-81
2023/04/18 01:41:42;;;;;;;4.28;3.97;;;;;;;;;;5014116;28;20675;-81
2023/04/18 01:44:09;;;;;;;4.57;4.18;;;;;;;;;;5013294;28;20227;-80
2023/04/18 01:46:37;;;;;;;4.45;4.05;;;;;;;;;;5013698;28;20302;-80
2023/04/18 01:49:05;;;;;;;4.40;4.10;;;;;;;;;;5004739;28;20283;-81
2023/04/18 01:51:33;;;;;;;5.43;4.10;;;;;;;;;;4994110;28;20702;-81
2023/04/18 01:54:00;;;;;;;4.60;4.25;;;;;;;;;;4993731;28;20703;-81
2023/04/18 01:56:28;;;;;;;5.20;4.70;;;;;;;;;;4993576;28;20213;-81
2023/04/18 01:58:57;;;;;;;5.10;4.70;;;;;;;;;;4993746;28;20238;-80
2023/04/18 02:01:24;;;;;;;5.28;4.78;;;;;;;;;;4993683;28;20207;-80
2023/04/18 02:03:51;;;;;;;4.93;4.15;;;;;;;;;;4993368;28;20307;-80
2023/04/18 02:06:19;;;;;;;5.00;4.53;;;;;;;;;;4993513;28;20594;-80
2023/04/18 02:08:46;;;;;;;5.05;4.53;;;;;;;;;;4993026;28;20211;-80
2023/04/18 02:11:14;;;;;;;4.07;3.65;;;;;;;;;;4993017;28;20319;-81
2023/04/18 02:13:41;;;;;;;5.25;4.75;;;;;;;;;;4993267;28;20306;-81
2023/04/18 02:16:13;;;;;;;4.43;4.03;;;;;;;;;;4994234;28;20683;-80
2023/04/18 02:18:43;;;;;;;4.95;4.45;;;;;;;;;;5012816;28;20286;-81
2023/04/18 02:21:11;;;;;;;4.22;3.83;;;;;;;;;;5012883;28;20195;-80
2023/04/18 02:23:38;;;;;;;4.25;3.92;;;;;;;;;;5012341;28;20319;-81
2023/04/18 02:26:06;;;;;;;3.83;3.53;;;;;;;;;;5012628;28;20199;-80
2023/04/18 02:28:33;;;;;;;4.20;3.80;;;;;;;;;;5012700;28;20205;-80
2023/04/18 02:31:01;;;;;;;5.38;4.88;;;;;;;;;;5012343;28;20696;-81
2023/04/18 02:33:29;;;;;;;4.18;3.78;;;;;;;;;;5012536;28;20227;-80
2023/04/18 02:35:57;;;;;;;4.55;4.15;;;;;;;;;;5012449;28;20213;-80
2023/04/18 02:38:24;;;;;;;3.65;3.35;;;;;;;;;;5012411;28;20213;-81
2023/04/18 02:40:52;;;;;;;3.72;3.42;;;;;;;;;;5012255;28;20290;-79
2023/04/18 02:43:19;;;;;;;4.63;4.22;;;;;;;;;;5012121;28;20227;-80
2023/04/18 02:45:47;;;;;;;4.63;4.03;;;;;;;;;;5012251;28;20213;-81
2023/04/18 02:48:14;;;;;;;4.93;4.40;;;;;;;;;;5011857;28;20207;-80
2023/04/18 02:50:43;;;;;;;3.80;3.50;;;;;;;;;;5012114;28;20700;-80
2023/04/18 02:53:10;;;;;;;4.00;3.60;;;;;;;;;;5011940;28;20219;-81
2023/04/18 02:55:38;;;;;;;4.60;4.20;;;;;;;;;;5011741;28;20215;-80
2023/04/18 02:58:05;;;;;;;3.33;3.03;;;;;;;;;;5015135;28;20289;-80
2023/04/18 03:00:33;;;;;;;3.83;3.53;;;;;;;;;;5015716;28;20273;-80
2023/04/18 03:03:01;;;;;;;4.65;4.00;;;;;;;;;;5015397;28;20254;-80
2023/04/18 03:05:28;;;;;;;4.63;4.22;;;;;;;;;;5015822;28;20211;-81
2023/04/18 03:07:57;;;;;;;3.67;3.38;;;;;;;;;;5015724;28;20229;-81
2023/04/18 03:10:24;;;;;;;4.80;4.05;;;;;;;;;;5015946;28;20209;-80
2023/04/18 03:12:52;;;;;;;6.15;3.72;;;;;;;;;;5015490;28;20694;-80
2023/04/18 03:15:20;;;;;;;4.20;3.90;;;;;;;;;;5015069;28;20230;-80
2023/04/18 03:17:47;;;;;;;4.78;4.38;;;;;;;;;;5015070;28;20210;-80
2023/04/18 03:20:15;;;;;;;5.57;5.07;;;;;;;;;;5015559;28;20203;-80
2023/04/18 03:22:42;;;;;;;4.68;4.28;;;;;;;;;;5015320;28;20297;-80
2023/04/18 03:25:11;;;;;;;4.30;3.92;;;;;;;;;;5015274;28;20722;-81
2023/04/18 03:27:38;;;;;;;3.90;3.60;;;;;;;;;;5015023;28;20218;-81
2023/04/18 03:30:08;;;;;;;4.47;4.03;;;;;;;;;;5015524;28;20293;-81
2023/04/18 03:32:35;;;;;;;4.28;3.45;;;;;;;;;;5014977;28;20207;-81
2023/04/18 03:35:03;;;;;;;3.40;3.20;;;;;;;;;;5014910;28;20203;-80
2023/04/18 03:37:30;;;;;;;4.38;3.97;;;;;;;;;;5015178;28;20207;-80
2023/04/18 03:39:58;;;;;;;5.05;4.65;;;;;;;;;;5014788;28;20203;-81
2023/04/18 03:42:27;;;;;;;4.03;3.72;;;;;;;;;;5015124;28;20211;-81
2023/04/18 03:44:54;;;;;;;4.15;3.78;;;;;;;;;;5015314;28;20610;-81
2023/04/18 03:47:21;;;;;;;3.70;3.30;;;;;;;;;;5015351;28;20203;-81
2023/04/18 03:49:49;;;;;;;4.22;3.90;;;;;;;;;;5015059;28;20234;-80
2023/04/18 03:52:18;;;;;;;5.10;4.50;;;;;;;;;;5015265;28;20253;-81
2023/04/18 03:54:46;;;;;;;5.38;4.15;;;;;;;;;;5015372;28;20219;-80
2023/04/18 03:57:13;;;;;;;6.10;5.35;;;;;;;;;;5015775;28;20560;-81
2023/04/18 03:59:42;;;;;;;4.65;4.25;;;;;;;;;;5015816;28;20294;-80
2023/04/18 04:02:10;;;;;;;4.63;4.22;;;;;;;;;;5015749;28;20567;-81
2023/04/18 04:04:37;;;;;;;4.22;3.83;;;;;;;;;;5015330;28;20295;-81
2023/04/18 04:07:05;;;;;;;3.30;2.97;;;;;;;;;;5015336;28;20215;-82
2023/04/18 04:09:32;;;;;;;3.53;3.22;;;;;;;;;;5015999;28;20298;-81
2023/04/18 04:12:01;;;;;;;4.03;3.45;;;;;;;;;;5015725;28;20298;-81
2023/04/18 04:14:29;;;;;;;3.85;3.25;;;;;;;;;;5015648;28;20306;-80
2023/04/18 04:16:58;;;;;;;3.35;2.95;;;;;;;;;;5015309;28;20257;-80
2023/04/18 04:19:25;;;;;;;3.00;2.80;;;;;;;;;;5015459;28;20271;-81
2023/04/18 04:21:53;;;;;;;3.30;3.00;;;;;;;;;;5015194;28;20199;-80
2023/04/18 04:24:20;;;;;;;4.32;3.92;;;;;;;;;;5014669;28;20230;-81
2023/04/18 04:26:49;;;;;;;4.60;4.25;;;;;;;;;;5015071;28;20210;-80
2023/04/18 04:29:17;;;;;;;4.07;3.67;;;;;;;;;;5014745;28;20270;-80
2023/04/18 04:31:45;;;;;;;4.68;4.28;;;;;;;;;;5014672;28;20234;-80
2023/04/18 04:34:15;;;;;;;4.00;3.60;;;;;;;;;;5014419;28;20223;-81
2023/04/18 04:36:42;;;;;;;3.90;3.60;;;;;;;;;;5014868;28;20277;-80
2023/04/18 04:39:10;;;;;;;3.65;3.40;;;;;;;;;;5014532;28;20668;-81
2023/04/18 04:41:39;;;;;;;3.65;3.35;;;;;;;;;;5014536;28;20202;-81
2023/04/18 04:44:08;;;;;;;3.60;3.33;;;;;;;;;;5014621;28;20294;-80
2023/04/18 04:46:38;;;;;;;3.70;3.40;;;;;;;;;;5014117;28;20268;-81
2023/04/18 04:49:05;;;;;;;3.55;3.25;;;;;;;;;;5013953;28;20226;-81
2023/04/18 04:51:34;;;;;;;5.22;4.38;;;;;;;;;;5014308;28;20198;-81
2023/04/18 04:54:02;;;;;;;3.42;3.13;;;;;;;;;;5014406;28;20584;-80
2023/04/18 04:56:29;;;;;;;3.40;3.10;;;;;;;;;;5013488;28;20294;-81
2023/04/18 04:58:57;;;;;;;4.05;3.70;;;;;;;;;;5013967;28;20293;-81
2023/04/18 05:01:24;;;;;;;3.60;3.30;;;;;;;;;;5013916;28;20293;-81
2023/04/18 05:03:52;;;;;;;2.92;2.70;;;;;;;;;;5016397;28;20270;-80
2023/04/18 05:06:21;;;;;;;3.63;3.30;;;;;;;;;;5014423;28;20702;-81
2023/04/18 05:08:51;;;;;;;4.05;3.67;;;;;;;;;;5015859;28;20245;-82
2023/04/18 05:11:19;;;;;;;4.22;3.92;;;;;;;;;;5016301;28;20291;-81
2023/04/18 05:13:47;;;;;;;3.97;3.55;;;;;;;;;;5015650;28;20223;-81
2023/04/18 05:16:14;;;;;;;3.78;3.55;;;;;;;;;;5018345;28;20237;-81
2023/04/18 05:18:42;;;;;;;3.92;3.53;;;;;;;;;;5015427;28;20299;-81
2023/04/18 05:21:09;;;;;;;4.10;3.60;;;;;;;;;;5002859;28;20195;-81
2023/04/18 05:23:37;;;;;;;4.32;3.92;;;;;;;;;;4994677;28;20310;-82
2023/04/18 05:26:06;;;;;;;4.53;4.20;;;;;;;;;;4994624;28;20757;-81
2023/04/18 05:28:33;;;;;;;4.47;4.07;;;;;;;;;;4994181;28;20200;-81
2023/04/18 05:31:01;;;;;;;3.95;3.53;;;;;;;;;;4995058;28;20212;-81
2023/04/18 05:33:28;;;;;;;3.47;3.17;;;;;;;;;;4997700;28;20287;-83
2023/04/18 05:35:56;;;;;;;4.18;3.88;;;;;;;;;;4996247;28;20287;-81
2023/04/18 05:38:24;;;;;;;3.63;3.08;;;;;;;;;;4996191;28;20235;-80
2023/04/18 05:40:54;;;;;;;3.83;3.53;;;;;;;;;;4995804;28;20207;-79
2023/04/18 05:43:23;;;;;;;3.75;3.45;;;;;;;;;;5016529;23;20236;-85
2023/04/18 05:45:52;;;;;;;3.92;3.63;;;;;;;;;;4994888;28;20212;-85
2023/04/18 05:48:20;;;;;;;3.65;3.30;;;;;;;;;;4995208;28;20203;-84
2023/04/18 05:50:47;;;;;;;3.33;3.03;;;;;;;;;;4995580;28;20214;-85
2023/04/18 05:53:15;;;;;;;3.58;3.28;;;;;;;;;;4995636;28;20684;-85
2023/04/18 05:55:45;;;;;;;3.55;3.25;;;;;;;;;;4995831;28;20299;-85
2023/04/18 05:58:12;;;;;;;3.58;3.22;;;;;;;;;;4994811;28;20222;-85
2023/04/18 06:00:42;;;;;;;2.63;2.42;;;;;;;;;;4995408;28;20238;-83
2023/04/18 06:03:10;;;;;;;2.95;2.70;;;;;;;;;;4995530;28;20278;-86
2023/04/18 06:05:39;;;;;;;3.45;3.15;;;;;;;;;;4995056;28;20232;-84
2023/04/18 06:08:07;;;;;;;5.35;3.03;;;;;;;;;;4994848;28;20234;-85
2023/04/18 06:10:34;;;;;;;5.00;4.50;;;;;;;;;;4995051;28;20735;-85
2023/04/18 06:13:02;;;;;;;3.05;2.80;;;;;;;;;;4994908;28;20227;-85
2023/04/18 06:15:30;;;;;;;2.70;2.50;;;;;;;;;;4995185;28;20762;-85
2023/04/18 06:17:59;;;;;;;3.13;2.83;;;;;;;;;;4994324;28;20781;-84
2023/04/18 06:20:26;;;;;;;3.65;3.33;;;;;;;;;;4994516;28;20227;-85
2023/04/18 06:22:54;;;;;;;3.25;2.95;;;;;;;;;;5011861;28;20282;-83
2023/04/18 06:25:21;;;;;;;3.05;2.85;;;;;;;;;;5013851;28;20226;-84
2023/04/18 06:27:49;;;;;;;3.88;3.35;;;;;;;;;;5013312;28;20202;-84
2023/04/18 06:30:20;;;;;;;3.95;3.55;;;;;;;;;;5013852;28;20213;-83
2023/04/18 06:32:48;;;;;;;3.78;3.47;;;;;;;;;;5018061;28;20207;-84
2023/04/18 06:35:17;;;;;;;2.65;2.45;;;;;;;;;;5017607;28;20632;-84
2023/04/18 06:37:45;;;;;;;3.70;3.40;;;;;;;;;;5017256;28;20286;-85
2023/04/18 06:40:13;;;;;;;3.13;2.92;;;;;;;;;;5017573;28;20203;-85
2023/04/18 06:42:42;;;;;;;4.13;3.75;;;;;;;;;;5017438;28;20203;-84
2023/04/18 06:45:10;;;;;;;4.10;3.65;;;;;;;;;;5017123;28;20443;-84
2023/04/18 06:47:38;;;;;;;3.08;2.85;;;;;;;;;;5004122;28;20208;-84
2023/04/18 06:50:07;;;;;;;2.88;2.67;;;;;;;;;;4997929;28;20287;-84
2023/04/18 06:52:39;;;;;;;2.78;2.58;;;;;;;;;;4996782;28;20211;-83
2023/04/18 06:55:08;;;;;;;3.80;3.40;;;;;;;;;;4997255;28;20693;-83
2023/04/18 06:57:36;;;;;;;3.88;3.42;;;;;;;;;;4997443;28;20296;-84
2023/04/18 07:00:04;;;;;;;4.43;4.00;;;;;;;;;;4997210;28;20282;-85
2023/04/18 07:02:32;;;;;;;3.45;3.15;;;;;;;;;;4997197;28;20286;-85
2023/04/18 07:05:00;;;;;;;3.30;3.00;;;;;;;;;;4997242;28;20374;-83
2023/04/18 07:07:27;;;;;;;3.03;2.72;;;;;;;;;;4996970;28;20231;-83
2023/04/18 07:09:56;;;;;;;3.53;3.22;;;;;;;;;;4996503;28;20200;-81
2023/04/18 07:12:24;;;;;;;4.32;3.92;;;;;;;;;;5012113;28;20238;-82
2023/04/18 07:14:51;;;;;;;3.80;3.38;;;;;;;;;;5016568;28;20254;-83
2023/04/18 07:17:19;;;;;;;4.25;3.80;;;;;;;;;;5017424;28;20284;-83
2023/04/18 07:19:47;;;;;;;4.07;3.58;;;;;;;;;;5018121;28;20204;-84
2023/04/18 07:22:14;;;;;;;4.68;4.28;;;;;;;;;;5019066;28;20191;-85
2023/04/18 07:24:42;;;;;;;3.58;3.25;;;;;;;;;;5018144;28;20215;-86
2023/04/18 07:27:11;;;;;;;3.95;2.95;;;;;;;;;;5002297;28;20228;-85
2023/04/18 07:29:39;;;;;;;3.88;3.17;;;;;;;;;;5001412;28;20622;-85
2023/04/18 07:32:06;;;;;;;3.83;3.05;;;;;;;;;;5000757;28;20272;-86
2023/04/18 07:34:35;;;;;;;6.25;3.60;;;;;;;;;;4999685;28;20244;-85
2023/04/18 07:37:02;;;;;;;3.58;3.28;;;;;;;;;;4998723;28;20599;-84
2023/04/18 07:39:34;;;;;;;5.10;3.65;;;;;;;;;;4997212;28;20231;-85
2023/04/18 07:42:02;;;;;;;3.60;3.25;;;;;;;;;;4996943;28;20196;-85
2023/04/18 07:44:31;;;;;;;4.47;3.60;;;;;;;;;;4997449;28;20291;-84
2023/04/18 07:46:59;;;;;;;4.38;3.90;;;;;;;;;;4997425;28;20725;-84
2023/04/18 07:49:27;;;;;;;3.92;3.25;;;;;;;;;;4997234;28;20267;-84
2023/04/18 07:51:56;;;;;;;5.05;3.60;;;;;;;;;;4997037;28;20283;-85
2023/04/18 07:54:24;;;;;;;4.57;3.90;;;;;;;;;;4997688;28;20277;-84
2023/04/18 07:56:51;;;;;;;4.40;4.00;;;;;;;;;;4996736;28;20208;-84
2023/04/18 07:59:19;;;;;;;3.67;3.38;;;;;;;;;;4996914;28;20287;-84
2023/04/18 08:01:48;;;;;;;4.05;3.65;;;;;;;;;;4996834;28;20233;-85
2023/04/18 08:04:15;;;;;;;4.63;3.97;;;;;;;;;;4996573;28;20224;-84
2023/04/18 08:06:43;;;;;;;6.53;5.30;;;;;;;;;;4997113;28;20731;-83
2023/04/18 08:09:11;;;;;;;5.07;4.28;;;;;;;;;;4996416;28;20202;-84
2023/04/18 08:11:40;;;;;;;4.95;4.45;;;;;;;;;;4996291;28;20199;-83
2023/04/18 08:14:07;;;;;;;4.72;3.95;;;;;;;;;;4996176;28;20580;-83
2023/04/18 08:16:35;;;;;;;5.53;5.03;;;;;;;;;;4995873;28;20291;-86
2023/04/18 08:19:04;;;;;;;5.22;4.63;;;;;;;;;;4995946;28;20290;-84
2023/04/18 08:21:32;;;;;;;6.85;5.32;;;;;;;;;;4996082;28;20216;-85
2023/04/18 08:24:00;;;;;;;6.30;5.70;;;;;;;;;;4996210;28;20227;-83
2023/04/18 08:26:27;;;;;;;5.18;4.68;;;;;;;;;;4996276;28;20291;-84
2023/04/18 08:28:55;;;;;;;6.18;4.35;;;;;;;;;;4995850;28;20599;-83
2023/04/18 08:31:22;;;;;;;5.30;4.80;;;;;;;;;;4995830;28;20303;-85
2023/04/18 08:33:50;;;;;;;4.53;3.47;;;;;;;;;;4995696;28;20621;-84
2023/04/18 08:36:20;;;;;;;3.95;3.55;;;;;;;;;;4996230;28;20294;-84
2023/04/18 08:38:47;;;;;;;4.85;4.22;;;;;;;;;;4995866;28;20195;-84
2023/04/18 08:41:17;;;;;;;5.45;4.25;;;;;;;;;;4994712;28;20191;-84
2023/04/18 08:43:48;;;;;;;4.72;4.32;;;;;;;;;;4995926;28;20318;-84
2023/04/18 08:46:16;;;;;;;5.57;4.57;;;;;;;;;;4995448;28;20187;-85
2023/04/18 08:48:43;;;;;;;5.95;5.45;;;;;;;;;;4994831;28;20314;-84
2023/04/18 08:51:11;;;;;;;4.93;4.43;;;;;;;;;;4995236;28;20411;-83
2023/04/18 08:53:40;;;;;;;5.32;4.82;;;;;;;;;;4994613;28;20734;-83
2023/04/18 08:56:09;;;;;;;6.00;5.28;;;;;;;;;;4995089;28;20211;-84
2023/04/18 08:58:37;;;;;;;5.97;5.38;;;;;;;;;;4994768;28;20204;-84
2023/04/18 09:01:06;;;;;;;5.93;5.43;;;;;;;;;;4995230;28;20245;-83
2023/04/18 09:03:41;;;;;;;6.45;5.72;;;;;;;;;;4995097;28;20219;-83
2023/04/18 09:06:12;;;;;;;8.65;7.80;;;;;;;;;;4994663;28;20327;-83
2023/04/18 09:08:42;;;;;;;5.82;5.28;;;;;;;;;;4993687;28;20323;-82
2023/04/18 09:11:24;;;;;;;8.40;7.50;;;;;;;;;;4994492;28;20230;-84
2023/04/18 09:13:54;;;;;;;6.65;6.05;;;;;;;;;;4994139;28;20219;-83
2023/04/18 09:16:22;;;;;;;6.70;5.93;;;;;;;;;;4994398;28;20204;-83
2023/04/18 09:19:11;;;;;;;7.68;6.68;;;;;;;;;;4993960;28;20226;-84
2023/04/18 09:21:40;;;;;;;8.00;6.18;;;;;;;;;;4994335;28;20203;-83
2023/04/18 09:24:22;;;;;;;7.13;6.53;;;;;;;;;;4994099;28;20657;-84
2023/04/18 09:26:52;;;;;;;5.43;5.03;;;;;;;;;;4993933;28;20183;-83
2023/04/18 09:29:21;;;;;;;6.65;5.93;;;;;;;;;;4993747;28;20293;-83
2023/04/18 09:31:58;;;;;;;7.63;6.93;;;;;;;;;;4994479;28;20200;-84
2023/04/18 09:34:26;;;;;;;7.38;6.68;;;;;;;;;;4993896;28;20219;-84
2023/04/18 09:37:07;;;;;;;7.95;6.90;;;;;;;;;;4994136;28;20196;-84
2023/04/18 09:39:38;;;;;;;8.55;7.20;;;;;;;;;;4993814;28;20575;-84
2023/04/18 09:42:07;;;;;;;7.88;7.07;;;;;;;;;;4993876;28;20203;-83
2023/04/18 09:44:35;;;;;;;7.65;6.95;;;;;;;;;;4993681;28;20278;-84
2023/04/18 09:47:02;;;;;;;8.23;7.43;;;;;;;;;;4993805;28;20715;-83
2023/04/18 09:49:30;;;;;;;7.80;7.05;;;;;;;;;;4993406;28;20204;-84
2023/04/18 09:51:57;;;;;;;9.00;8.13;;;;;;;;;;4994763;28;20199;-86
2023/04/18 09:54:26;;;;;;;8.68;7.93;;;;;;;;;;4994384;28;20315;-84
2023/04/18 09:56:55;;;;;;;8.55;7.75;;;;;;;;;;4993871;28;20622;-84
2023/04/18 09:59:34;;;;;;;7.72;6.93;;;;;;;;;;4993710;28;20667;-85
2023/04/18 10:02:03;;;;;;;7.22;6.53;;;;;;;;;;4993790;28;20217;-85
2023/04/18 10:04:32;;;;;;;6.78;5.78;;;;;;;;;;4994127;28;20229;-83
2023/04/18 10:07:00;;;;;;;6.47;5.88;;;;;;;;;;4993424;28;20310;-84
2023/04/18 10:09:31;;;;;;;5.80;5.22;;;;;;;;;;4993250;28;20231;-83
2023/04/18 10:12:02;;;;;;;5.88;5.38;;;;;;;;;;4993512;28;20207;-83
2023/04/18 10:14:30;;;;;;;6.13;5.63;;;;;;;;;;4993602;28;20230;-84
2023/04/18 10:17:00;;;;;;;8.32;7.32;;;;;;;;;;4992639;28;20208;-84
2023/04/18 10:19:30;;;;;;;7.65;6.90;;;;;;;;;;4993690;28;20290;-84
2023/04/18 10:22:00;;;;;;;7.30;6.60;;;;;;;;;;4993908;28;20310;-84
2023/04/18 10:24:48;;;;;;;7.80;7.03;;;;;;;;;;4996046;28;20691;-87
2023/04/18 10:27:17;;;;;;;7.97;7.18;;;;;;;;;;5018036;28;20226;-85
2023/04/18 10:29:49;;;;;;;7.60;6.90;;;;;;;;;;5017790;28;20223;-83
2023/04/18 10:32:18;;;;;;;7.72;6.75;;;;;;;;;;5017906;28;20207;-86
2023/04/18 10:34:47;;;;;;;7.07;6.38;;;;;;;;;;5018035;28;20506;-86
2023/04/18 10:37:16;;;;;;;7.38;6.53;;;;;;;;;;5013640;28;20204;-84
2023/04/18 10:39:56;;;;;;;6.07;5.50;;;;;;;;;;5010003;28;20226;-85
2023/04/18 10:42:59;;;;;;;7.85;5.85;;;;;;;;;;5011358;28;20201;-84
2023/04/18 10:45:29;;;;;;;6.35;5.75;;;;;;;;;;5012914;28;20219;-85
2023/04/18 10:48:28;;;;;;;5.65;5.15;;;;;;;;;;5017474;28;20231;-86
2023/04/18 10:51:16;;;;;;;6.93;6.18;;;;;;;;;;5017682;28;20226;-87
2023/04/18 10:53:51;;;;;;;7.05;6.38;;;;;;;;;;5017794;28;20242;-87
2023/04/18 10:56:19;;;;;;;7.35;6.75;;;;;;;;;;5017713;28;20219;-86
2023/04/18 10:58:51;;;;;;;6.68;6.03;;;;;;;;;;5010014;28;20254;-87
2023/04/18 11:01:27;;;;;;;5.88;5.38;;;;;;;;;;5000484;28;20228;-85
2023/04/18 11:03:55;;;;;;;6.57;5.97;;;;;;;;;;4999594;28;20226;-85
2023/04/18 11:06:24;;;;;;;5.97;5.50;;;;;;;;;;5000825;28;20235;-86
2023/04/18 11:08:52;;;;;;;6.20;5.63;;;;;;;;;;4997367;28;20226;-85
2023/04/18 11:11:19;;;;;;;5.50;5.00;;;;;;;;;;4997304;28;20654;-85
2023/04/18 11:13:59;;;;;;;6.95;6.25;;;;;;;;;;4996835;28;20266;-85
2023/04/18 11:16:28;;;;;;;5.07;4.65;;;;;;;;;;4996878;28;20242;-86
2023/04/18 11:18:56;;;;;;;5.50;5.00;;;;;;;;;;4999889;28;20294;-85
2023/04/18 11:21:27;;;;;;;6.40;5.72;;;;;;;;;;5001259;28;20679;-85
2023/04/18 11:23:56;;;;;;;6.78;6.18;;;;;;;;;;5001247;28;20876;-85
2023/04/18 11:26:25;;;;;;;6.38;5.80;;;;;;;;;;5001385;28;20661;-85
2023/04/18 11:28:57;;;;;;;6.03;5.53;;;;;;;;;;5000044;28;20698;-86
2023/04/18 11:31:25;;;;;;;6.82;5.60;;;;;;;;;;5001319;28;20208;-86
2023/04/18 11:33:55;;;;;;;6.70;6.10;;;;;;;;;;4999925;28;20660;-85
2023/04/18 11:36:23;;;;;;;5.80;5.30;;;;;;;;;;5001417;28;20691;-86
2023/04/18 11:38:51;;;;;;;5.50;5.00;;;;;;;;;;5000194;28;20290;-86
2023/04/18 11:41:18;;;;;;;5.75;5.25;;;;;;;;;;4999938;28;20286;-85
2023/04/18 11:43:47;;;;;;;5.65;5.15;;;;;;;;;;5021901;23;20234;-83
2023/04/18 11:46:15;;;;;;;4.90;4.50;;;;;;;;;;4996523;28;20207;-83
2023/04/18 11:48:45;;;;;;;4.05;3.75;;;;;;;;;;4995573;28;20314;-83
2023/04/18 11:51:37;;;;;;;4.53;4.13;;;;;;;;;;4996939;28;20227;-83
2023/04/18 11:54:04;;;;;;;5.55;5.05;;;;;;;;;;4997364;28;20722;-83
2023/04/18 11:56:32;;;;;;;5.38;4.88;;;;;;;;;;5001898;28;20585;-83
2023/04/18 11:58:59;;;;;;;5.85;5.22;;;;;;;;;;5000463;28;20590;-83
2023/04/18 12:01:28;;;;;;;6.40;5.88;;;;;;;;;;5000536;28;20296;-83
2023/04/18 12:04:03;;;;;;;6.22;5.63;;;;;;;;;;4999503;28;20261;-82
2023/04/18 12:06:48;;;;;;;5.28;4.82;;;;;;;;;;5000928;28;20203;-83
2023/04/18 12:09:15;;;;;;;6.38;5.88;;;;;;;;;;4999356;28;20274;-83
2023/04/18 12:11:43;;;;;;;5.43;4.97;;;;;;;;;;4998845;28;20294;-83
2023/04/18 12:14:20;;;;;;;4.95;4.45;;;;;;;;;;4995790;28;20310;-83
2023/04/18 12:16:50;;;;;;;5.07;4.60;;;;;;;;;;4995499;28;20207;-83
2023/04/18 12:19:19;;;;;;;5.88;5.32;;;;;;;;;;4995381;28;20290;-82
2023/04/18 12:21:59;;;;;;;5.60;5.10;;;;;;;;;;5006193;28;20213;-83
2023/04/18 12:24:27;;;;;;;5.30;4.80;;;;;;;;;;5007350;28;20226;-83
2023/04/18 12:26:56;;;;;;;5.20;4.68;;;;;;;;;;5006815;28;20199;-82
2023/04/18 12:29:24;;;;;;;5.35;4.85;;;;;;;;;;5006284;28;20232;-84
2023/04/18 12:31:53;;;;;;;6.82;6.13;;;;;;;;;;5005089;28;20204;-84
2023/04/18 12:34:20;;;;;;;10.20;6.20;;;;;;;;;;5004685;28;20243;-82
2023/04/18 12:36:48;;;;;;;7.10;6.47;;;;;;;;;;5004071;28;20271;-83
2023/04/18 12:39:15;;;;;;;6.18;5.55;;;;;;;;;;5003931;28;20235;-84
2023/04/18 12:41:44;;;;;;;6.43;5.88;;;;;;;;;;5003093;28;20263;-83
2023/04/18 12:44:11;;;;;;;5.90;5.40;;;;;;;;;;5002462;28;20238;-84
2023/04/18 12:46:39;;;;;;;6.85;6.15;;;;;;;;;;5001999;28;20235;-84
2023/04/18 12:49:08;;;;;;;5.55;5.15;;;;;;;;;;5000379;28;20228;-84
2023/04/18 12:51:35;;;;;;;6.75;5.47;;;;;;;;;;5002367;28;20287;-82
2023/04/18 12:54:03;;;;;;;5.05;4.65;;;;;;;;;;4999665;28;20230;-84
2023/04/18 12:56:30;;;;;;;4.70;4.30;;;;;;;;;;5000149;28;20203;-83
2023/04/18 12:58:57;;;;;;;5.78;5.28;;;;;;;;;;5000155;28;20203;-82
2023/04/18 13:01:25;;;;;;;5.38;4.93;;;;;;;;;;5000062;28;20671;-83
2023/04/18 13:03:53;;;;;;;5.55;5.05;;;;;;;;;;4998954;28;20243;-82
2023/04/18 13:06:23;;;;;;;5.70;5.20;;;;;;;;;;4998398;28;20203;-82
2023/04/18 13:08:50;;;;;;;5.20;4.80;;;;;;;;;;4998337;28;20210;-84
2023/04/18 13:11:19;;;;;;;6.20;5.63;;;;;;;;;;4997055;28;20251;-83
2023/04/18 13:13:46;;;;;;;6.63;6.03;;;;;;;;;;4997511;28;20243;-83
2023/04/18 13:16:14;;;;;;;6.68;5.97;;;;;;;;;;4996695;28;20207;-83
2023/04/18 13:18:41;;;;;;;6.63;5.70;;;;;;;;;;4996081;28;20214;-82
2023/04/18 13:21:09;;;;;;;5.90;4.93;;;;;;;;;;4996734;28;20747;-83
2023/04/18 13:23:38;;;;;;;5.28;4.78;;;;;;;;;;5000021;28;20238;-83
2023/04/18 13:26:07;;;;;;;7.38;6.78;;;;;;;;;;4999437;28;20231;-84
2023/04/18 13:28:34;;;;;;;5.70;5.20;;;;;;;;;;4999025;28;20287;-83
2023/04/18 13:31:02;;;;;;;5.85;5.30;;;;;;;;;;4997986;28;20649;-83
2023/04/18 13:33:29;;;;;;;4.47;4.18;;;;;;;;;;4998083;28;20231;-83
2023/04/18 13:35:57;;;;;;;4.93;4.53;;;;;;;;;;4998293;28;20286;-84
2023/04/18 13:38:25;;;;;;;5.85;4.82;;;;;;;;;;4997780;28;20673;-83
2023/04/18 13:40:54;;;;;;;4.50;4.10;;;;;;;;;;4996477;28;20250;-83
2023/04/18 13:43:21;;;;;;;4.80;4.40;;;;;;;;;;4997035;28;20226;-83
2023/04/18 13:45:49;;;;;;;5.95;5.40;;;;;;;;;;4996817;28;20235;-83
2023/04/18 13:48:16;;;;;;;5.70;5.20;;;;;;;;;;4995370;28;20299;-84
2023/04/18 13:50:44;;;;;;;6.32;5.72;;;;;;;;;;4994345;28;20318;-81
2023/04/18 13:53:11;;;;;;;5.55;4.70;;;;;;;;;;4993848;28;20290;-83
2023/04/18 13:55:39;;;;;;;6.63;6.03;;;;;;;;;;4993251;28;20230;-83
2023/04/18 13:58:08;;;;;;;4.47;4.10;;;;;;;;;;4993484;28;20199;-83
2023/04/18 15:03:19;;;;;;;4.68;4.00;;;;;;;;;;4979384;28;20287;-82
2023/04/18 15:05:47;;;;;;;4.13;3.83;;;;;;;;;;4979015;28;20725;-82
2023/04/18 15:08:15;;;;;;;4.03;3.72;;;;;;;;;;4979118;28;20210;-82
2023/04/18 15:10:43;;;;;;;3.65;3.38;;;;;;;;;;4978687;28;20247;-82
2023/04/18 15:13:11;;;;;;;3.80;3.50;;;;;;;;;;4979059;28;20208;-81
2023/04/18 15:15:38;;;;;;;3.80;3.50;;;;;;;;;;4984314;28;20220;-82
2023/04/18 15:18:07;;;;;;;4.80;4.40;;;;;;;;;;5004315;28;20687;-84
2023/04/18 15:20:36;;;;;;;4.82;4.43;;;;;;;;;;5007976;28;20207;-81
2023/04/18 15:23:04;;;;;;;6.05;5.45;;;;;;;;;;5007415;28;20243;-82
2023/04/18 15:25:31;;;;;;;6.55;5.50;;;;;;;;;;5007289;28;20258;-82
2023/04/18 15:27:58;;;;;;;3.85;3.50;;;;;;;;;;5007109;28;20246;-82
2023/04/18 15:30:26;;;;;;;4.55;4.20;;;;;;;;;;5005610;28;20311;-82
2023/04/18 15:32:54;;;;;;;36.92;31.88;;;;;;;;;;5005779;28;20267;-82
2023/04/18 15:35:22;;;;;;;9.93;9.02;;;;;;;;;;5004532;28;20605;-81
2023/04/18 15:37:52;;;;;;;6.60;5.97;;;;;;;;;;5004953;28;20294;-82
2023/04/18 15:40:20;;;;;;;5.30;4.80;;;;;;;;;;5003802;28;20213;-82
2023/04/18 15:42:48;;;;;;;5.20;4.75;;;;;;;;;;5004272;28;20211;-81
2023/04/18 15:45:16;;;;;;;4.90;4.50;;;;;;;;;;5007975;28;20262;-82
2023/04/18 15:47:43;;;;;;;4.15;3.85;;;;;;;;;;5006589;28;20238;-81
2023/04/18 15:50:11;;;;;;;3.63;3.33;;;;;;;;;;5008301;28;20210;-81
2023/04/18 15:52:39;;;;;;;4.10;3.72;;;;;;;;;;5008507;28;20238;-82
2023/04/18 15:55:12;;;;;;;3.22;3.03;;;;;;;;;;5005912;28;20707;-79